createdAt,value
2022-09-16T00:00:03.737Z,99429.28
2022-09-16T00:02:53.701Z,99431.13
2022-09-16T00:05:44.196Z,99435.44
2022-09-16T00:08:32.923Z,99430.31
2022-09-16T00:11:21.457Z,99426.38
2022-09-16T00:14:10.818Z,99420.47
2022-09-16T00:16:59.289Z,99418.97
2022-09-16T00:19:47.804Z,99418.97
2022-09-16T00:22:37.528Z,99423.88
2022-09-16T00:25:26.045Z,99432.91
2022-09-16T00:28:14.525Z,99434.97
2022-09-16T00:31:03.562Z,99438.13
2022-09-16T00:33:51.983Z,99438.31
2022-09-16T00:36:40.385Z,99437.53
2022-09-16T00:39:30.542Z,99434.84
2022-09-16T00:42:19.534Z,99439.63
2022-09-16T00:45:15.351Z,99434.28
2022-09-16T00:48:07.112Z,99438.78
2022-09-16T00:50:58.297Z,99438.78
2022-09-16T00:53:52.058Z,99441.69
2022-09-16T00:56:43.596Z,99443.31
2022-09-16T00:59:34.679Z,99438.19
2022-09-16T01:02:25.121Z,99437.97
2022-09-16T01:05:16.126Z,99437.97
2022-09-16T01:08:04.987Z,99443.31
2022-09-16T01:10:54.074Z,99437.75
2022-09-16T01:13:44.988Z,99434.63
2022-09-16T01:16:37.183Z,99444.50
2022-09-16T01:19:39.755Z,99444.50
2022-09-16T01:22:43.774Z,99444.94
2022-09-16T01:25:39.689Z,99444.13
2022-09-16T01:28:41.899Z,99439.63
2022-09-16T01:31:35.000Z,99442.72
2022-09-16T01:34:27.388Z,99445.84
2022-09-16T01:37:21.849Z,99451.19
2022-09-16T01:40:15.261Z,99451.19
2022-09-16T01:43:11.090Z,99445.63
2022-09-16T01:46:03.566Z,99447.47
2022-09-16T01:48:59.793Z,99450.13
2022-09-16T01:51:52.665Z,99445.84
2022-09-16T01:54:44.880Z,99449.47
2022-09-16T01:57:36.627Z,99454.44
2022-09-16T02:00:25.157Z,99448.66
2022-09-16T02:03:15.248Z,99450.28
2022-09-16T02:06:07.794Z,99444.94
2022-09-16T02:08:57.854Z,99458.91
2022-09-16T02:11:49.166Z,99450.28
2022-09-16T02:14:42.075Z,99450.88
2022-09-16T02:17:32.403Z,99446.97
2022-09-16T02:20:24.973Z,99441.81
2022-09-16T02:23:17.695Z,99444.50
2022-09-16T02:26:08.082Z,99454.59
2022-09-16T02:28:57.542Z,99452.97
2022-09-16T02:31:46.400Z,99452.38
2022-09-16T02:34:38.370Z,99448.66
2022-09-16T02:37:31.121Z,99441.69
2022-09-16T02:40:24.450Z,99446.59
2022-09-16T02:43:15.214Z,99444.94
2022-09-16T02:46:11.003Z,99451.34
2022-09-16T02:49:05.847Z,99453.38
2022-09-16T02:52:00.135Z,99454.44
2022-09-16T02:54:51.734Z,99451.19
2022-09-16T02:57:43.367Z,99452.00
2022-09-16T03:00:34.041Z,99454.88
2022-09-16T03:03:22.848Z,99448.28
2022-09-16T03:06:22.439Z,99449.09
2022-09-16T03:09:15.212Z,99448.28
2022-09-16T03:12:34.367Z,99453.63
2022-09-16T03:15:30.473Z,99443.75
2022-09-16T03:18:40.128Z,99449.53
2022-09-16T03:21:33.610Z,99444.78
2022-09-16T03:24:30.039Z,99451.19
2022-09-16T03:27:21.069Z,99445.38
2022-09-16T03:30:11.724Z,99445.84
2022-09-16T03:33:04.283Z,99442.13
2022-09-16T03:35:54.276Z,99442.56
2022-09-16T03:38:43.765Z,99440.50
2022-09-16T03:41:34.717Z,99446.06
2022-09-16T03:44:23.162Z,99444.19
2022-09-16T03:47:11.665Z,99439.91
2022-09-16T03:50:01.460Z,99440.94
2022-09-16T03:52:49.886Z,99431.88
2022-09-16T03:55:38.337Z,99440.94
2022-09-16T03:58:28.407Z,99439.91
2022-09-16T04:01:16.981Z,99441.75
2022-09-16T04:04:05.459Z,99442.00
2022-09-16T04:06:55.389Z,99442.56
2022-09-16T04:09:43.882Z,99433.53
2022-09-16T04:12:32.343Z,99427.38
2022-09-16T04:15:20.792Z,99442.78
2022-09-16T04:18:09.531Z,99438.88
2022-09-16T04:20:58.837Z,99436.19
2022-09-16T04:23:48.773Z,99436.78
2022-09-16T04:26:37.263Z,99434.09
2022-09-16T04:29:25.746Z,99434.28
2022-09-16T04:32:14.198Z,99428.94
2022-09-16T04:35:02.820Z,99433.81
2022-09-16T04:37:51.359Z,99438.13
2022-09-16T04:40:41.115Z,99438.13
2022-09-16T04:43:32.295Z,99449.84
2022-09-16T04:46:20.866Z,99448.13
2022-09-16T04:49:09.355Z,99452.22
2022-09-16T04:51:57.928Z,99451.00
2022-09-16T04:54:46.322Z,99455.19
2022-09-16T04:57:36.218Z,99446.59
2022-09-16T05:00:24.695Z,99453.56
2022-09-16T05:03:13.118Z,99453.94
2022-09-16T05:06:09.239Z,99458.44
2022-09-16T05:09:00.299Z,99448.22
2022-09-16T05:11:48.715Z,99447.16
2022-09-16T05:14:38.420Z,99449.84
2022-09-16T05:17:49.780Z,99453.56
2022-09-16T05:20:37.605Z,99454.59
2022-09-16T05:23:26.052Z,99456.81
2022-09-16T05:26:16.532Z,99458.91
2022-09-16T05:29:07.490Z,99458.06
2022-09-16T05:31:58.007Z,99461.56
2022-09-16T05:34:46.478Z,99458.31
2022-09-16T05:37:34.996Z,99464.69
2022-09-16T05:40:24.025Z,99456.91
2022-09-16T05:43:12.583Z,99461.41
2022-09-16T05:46:01.341Z,99463.06
2022-09-16T05:48:51.532Z,99456.69
2022-09-16T05:51:41.535Z,99458.06
2022-09-16T05:54:31.430Z,99456.91
2022-09-16T05:57:21.593Z,99457.28
2022-09-16T06:00:12.601Z,99455.63
2022-09-16T06:03:00.987Z,99455.25
2022-09-16T06:05:50.852Z,99459.34
2022-09-16T06:08:39.429Z,99454.88
2022-09-16T06:11:29.292Z,99453.84
2022-09-16T06:14:18.473Z,99460.81
2022-09-16T06:17:07.081Z,99459.78
2022-09-16T06:19:55.541Z,99455.47
2022-09-16T06:22:45.499Z,99462.69
2022-09-16T06:25:34.155Z,99453.84
2022-09-16T06:28:24.880Z,99449.91
2022-09-16T06:31:16.000Z,99448.28
2022-09-16T06:34:05.326Z,99449.09
2022-09-16T06:36:53.711Z,99456.50
2022-09-16T06:39:43.727Z,99449.53
2022-09-16T06:42:32.182Z,99454.88
2022-09-16T06:45:20.555Z,99454.50
2022-09-16T06:48:09.028Z,99453.72
2022-09-16T06:51:00.995Z,99459.06
2022-09-16T06:53:49.974Z,99459.06
2022-09-16T06:56:41.441Z,99459.50
2022-09-16T06:59:30.170Z,99459.06
2022-09-16T07:02:18.961Z,99461.13
2022-09-16T07:05:08.518Z,99462.78
2022-09-16T07:07:56.999Z,99459.06
2022-09-16T07:10:45.482Z,99459.06
2022-09-16T07:13:35.885Z,99460.91
2022-09-16T07:16:26.168Z,99456.38
2022-09-16T07:19:14.814Z,99461.13
2022-09-16T07:22:03.648Z,99462.19
2022-09-16T07:24:53.164Z,99456.00
2022-09-16T07:27:42.195Z,99466.47
2022-09-16T07:30:34.281Z,99459.50
2022-09-16T07:33:24.989Z,99472.25
2022-09-16T07:36:15.852Z,99463.63
2022-09-16T07:39:04.796Z,99473.53
2022-09-16T07:41:53.212Z,99467.81
2022-09-16T07:44:41.606Z,99469.44
2022-09-16T07:47:32.366Z,99467.81
2022-09-16T07:50:20.796Z,99461.41
2022-09-16T07:53:09.184Z,99464.69
2022-09-16T07:55:57.671Z,99465.50
2022-09-16T07:58:46.990Z,99465.50
2022-09-16T08:01:38.997Z,99468.97
2022-09-16T08:04:32.685Z,99466.09
2022-09-16T08:07:21.201Z,99469.81
2022-09-16T08:10:10.134Z,99464.47
2022-09-16T08:12:58.645Z,99460.38
2022-09-16T08:15:47.420Z,99453.78
2022-09-16T08:18:36.402Z,99453.78
2022-09-16T08:21:27.957Z,99450.06
2022-09-16T08:24:16.709Z,99448.66
2022-09-16T08:27:05.387Z,99453.41
2022-09-16T08:29:53.931Z,99451.34
2022-09-16T08:32:42.374Z,99448.88
2022-09-16T08:35:32.052Z,99455.88
2022-09-16T08:38:21.832Z,99454.22
2022-09-16T08:41:28.171Z,99454.44
2022-09-16T08:44:22.643Z,99451.34
2022-09-16T08:47:27.767Z,99463.63
2022-09-16T08:50:20.358Z,99458.31
2022-09-16T08:53:16.896Z,99459.94
2022-09-16T08:56:09.598Z,99454.00
2022-09-16T08:59:00.270Z,99452.16
2022-09-16T09:01:52.021Z,99460.97
2022-09-16T09:04:41.132Z,99462.47
2022-09-16T09:07:41.586Z,99464.09
2022-09-16T09:10:34.719Z,99460.84
2022-09-16T09:13:37.200Z,99463.25
2022-09-16T09:16:33.042Z,99460.59
2022-09-16T09:19:28.621Z,99460.38
2022-09-16T09:22:26.780Z,99462.00
2022-09-16T09:25:24.109Z,99465.94
2022-09-16T09:28:44.638Z,99456.66
2022-09-16T09:31:41.344Z,99459.56
2022-09-16T09:34:41.029Z,99457.13
2022-09-16T09:37:43.153Z,99456.66
2022-09-16T09:40:34.832Z,99447.03
2022-09-16T09:43:30.109Z,99442.72
2022-09-16T09:46:23.926Z,99439.59
2022-09-16T09:49:15.362Z,99438.81
2022-09-16T09:52:08.736Z,99422.53
2022-09-16T09:54:57.489Z,99419.28
2022-09-16T09:57:59.671Z,99430.56
2022-09-16T10:00:48.493Z,99430.56
2022-09-16T10:03:40.232Z,99427.69
2022-09-16T10:06:31.783Z,99419.44
2022-09-16T10:09:21.423Z,99416.78
2022-09-16T10:12:11.741Z,99413.50
2022-09-16T10:15:00.718Z,99427.47
2022-09-16T10:17:50.901Z,99443.50
2022-09-16T10:20:44.436Z,99446.38
2022-09-16T10:23:33.544Z,99438.56
2022-09-16T10:26:23.597Z,99431.13
2022-09-16T10:29:18.022Z,99432.81
2022-09-16T10:32:07.889Z,99432.81
2022-09-16T10:34:56.449Z,99436.06
2022-09-16T10:37:51.464Z,99439.78
2022-09-16T10:40:41.225Z,99436.66
2022-09-16T10:43:31.746Z,99427.47
2022-09-16T10:46:22.894Z,99431.13
2022-09-16T10:49:12.598Z,99426.63
2022-09-16T10:52:10.361Z,99429.09
2022-09-16T10:55:14.002Z,99421.66
2022-09-16T10:58:10.203Z,99425.38
2022-09-16T11:01:11.628Z,99432.34
2022-09-16T11:04:23.876Z,99431.75
2022-09-16T11:07:22.281Z,99423.75
2022-09-16T11:10:23.277Z,99422.72
2022-09-16T11:13:21.699Z,99432.81
2022-09-16T11:16:24.348Z,99430.13
2022-09-16T11:19:17.307Z,99431.13
2022-09-16T11:22:17.787Z,99428.72
2022-09-16T11:25:29.273Z,99432.44
2022-09-16T11:28:42.876Z,99422.53
2022-09-16T11:31:38.340Z,99419.28
2022-09-16T11:34:44.496Z,99418.84
2022-09-16T11:37:39.192Z,99410.81
2022-09-16T11:40:41.328Z,99423.75
2022-09-16T11:44:04.690Z,99420.03
2022-09-16T11:47:02.315Z,99414.69
2022-09-16T11:50:17.968Z,99420.63
2022-09-16T11:53:44.477Z,99406.44
2022-09-16T11:56:39.999Z,99399.84
2022-09-16T11:59:31.883Z,99394.88
2022-09-16T12:02:27.293Z,99396.50
2022-09-16T12:05:20.466Z,99391.97
2022-09-16T12:08:14.590Z,99384.19
2022-09-16T12:11:05.771Z,99377.13
2022-09-16T12:14:05.366Z,99373.41
2022-09-16T12:16:58.161Z,99374.22
2022-09-16T12:19:51.494Z,99378.19
2022-09-16T12:22:43.583Z,99373.41
2022-09-16T12:25:38.044Z,99361.09
2022-09-16T12:28:31.227Z,99367.16
2022-09-16T12:31:25.365Z,99369.81
2022-09-16T12:34:16.545Z,99368.78
2022-09-16T12:37:09.876Z,99353.22
2022-09-16T12:39:58.535Z,99351.13
2022-09-16T12:43:30.601Z,99339.63
2022-09-16T12:46:37.229Z,99332.94
2022-09-16T12:49:44.475Z,99339.13
2022-09-16T12:53:07.766Z,99335.41
2022-09-16T12:56:04.150Z,99341.47
2022-09-16T12:59:15.851Z,99331.25
2022-09-16T13:02:15.625Z,99329.59
2022-09-16T13:05:14.387Z,99327.97
2022-09-16T13:08:06.087Z,99316.84
2022-09-16T13:11:20.922Z,99309.41
2022-09-16T13:14:22.663Z,99329.16
2022-09-16T13:17:13.576Z,99311.03
2022-09-16T13:20:07.910Z,99309.66
2022-09-16T13:23:05.485Z,99302.91
2022-09-16T13:25:59.996Z,99303.63
2022-09-16T13:28:48.940Z,99308.88
2022-09-16T13:31:48.475Z,99308.28
2022-09-16T13:34:38.411Z,99302.00
2022-09-16T13:37:27.621Z,99289.22
2022-09-16T13:40:21.407Z,99308.03
2022-09-16T13:43:15.268Z,99300.16
2022-09-16T13:46:11.621Z,99298.53
2022-09-16T13:49:11.107Z,99292.72
2022-09-16T13:52:00.992Z,99294.69
2022-09-16T13:58:03.159Z,99323.66
2022-09-16T14:01:00.403Z,99326.91
2022-09-16T14:03:58.058Z,99325.59
2022-09-16T14:06:53.033Z,99328.28
2022-09-16T14:09:54.131Z,99321.78
2022-09-16T14:12:51.497Z,99316.44
2022-09-16T14:15:44.241Z,99318.06
2022-09-16T14:18:34.943Z,99332.00
2022-09-16T14:21:26.031Z,99319.22
2022-09-16T14:24:21.378Z,99319.94
2022-09-16T14:27:22.198Z,99312.47
2022-09-16T14:30:20.221Z,99305.50
2022-09-16T14:33:08.774Z,99309.81
2022-09-16T14:35:57.709Z,99306.09
2022-09-16T14:38:48.836Z,99308.75
2022-09-16T14:41:39.629Z,99299.22
2022-09-16T14:44:36.665Z,99299.09
2022-09-16T14:47:47.471Z,99300.75
2022-09-16T14:50:41.641Z,99302.38
2022-09-16T14:53:36.449Z,99293.53
2022-09-16T14:56:26.453Z,99290.38
2022-09-16T14:59:17.318Z,99296.56
2022-09-16T15:02:09.922Z,99295.31
2022-09-16T15:04:59.858Z,99291.00
2022-09-16T15:08:12.277Z,99294.03
2022-09-16T15:10:59.048Z,99289.50
2022-09-16T15:13:47.671Z,99281.47
2022-09-16T15:16:41.622Z,99276.69
2022-09-16T15:19:35.622Z,99276.69
2022-09-16T15:22:27.049Z,99272.19
2022-09-16T15:25:21.448Z,99273.47
2022-09-16T15:28:17.865Z,99265.19
2022-09-16T15:31:09.998Z,99275.06
2022-09-16T15:34:00.163Z,99270.88
2022-09-16T15:36:51.679Z,99268.47
2022-09-16T15:39:40.782Z,99276.94
2022-09-16T15:42:29.633Z,99271.72
2022-09-16T15:45:20.786Z,99272.06
2022-09-16T15:48:16.075Z,99289.59
2022-09-16T15:51:07.927Z,99285.78
2022-09-16T15:54:01.105Z,99284.63
2022-09-16T15:56:59.005Z,99289.34
2022-09-16T15:59:57.382Z,99288.22
2022-09-16T16:02:49.393Z,99289.72
2022-09-16T16:05:39.637Z,99289.03
2022-09-16T16:08:48.394Z,99287.84
2022-09-16T16:11:38.144Z,99295.41
2022-09-16T16:14:32.107Z,99297.03
2022-09-16T16:17:21.729Z,99297.84
2022-09-16T16:20:12.091Z,99295.19
2022-09-16T16:23:00.840Z,99292.50
2022-09-16T16:25:49.314Z,99292.97
2022-09-16T16:28:39.436Z,99288.09
2022-09-16T16:31:27.940Z,99292.16
2022-09-16T16:34:16.397Z,99293.34
2022-09-16T16:37:05.481Z,99293.22
2022-09-16T16:39:54.618Z,99300.66
2022-09-16T16:42:43.540Z,99296.25
2022-09-16T16:45:33.722Z,99283.31
2022-09-16T16:48:22.198Z,99289.47
2022-09-16T16:51:13.968Z,99288.34
2022-09-16T16:54:02.410Z,99289.97
2022-09-16T16:56:50.821Z,99290.38
2022-09-16T16:59:39.407Z,99297.25
2022-09-16T17:02:29.239Z,99290.97
2022-09-16T17:05:17.726Z,99290.97
2022-09-16T17:08:06.190Z,99287.38
2022-09-16T17:11:06.910Z,99289.69
2022-09-16T17:13:59.746Z,99291.91
2022-09-16T17:16:48.370Z,99298.19
2022-09-16T17:19:38.142Z,99289.94
2022-09-16T17:22:28.071Z,99285.53
2022-09-16T17:25:16.507Z,99288.09
2022-09-16T17:28:04.957Z,99286.47
2022-09-16T17:30:53.518Z,99285.97
2022-09-16T17:33:41.998Z,99287.13
2022-09-16T17:36:31.897Z,99287.59
2022-09-16T17:39:22.119Z,99291.09
2022-09-16T17:42:10.628Z,99289.22
2022-09-16T17:45:00.745Z,99286.56
2022-09-16T17:47:49.196Z,99301.56
2022-09-16T17:50:39.499Z,99285.72
2022-09-16T17:53:29.301Z,99292.97
2022-09-16T17:56:18.344Z,99301.09
2022-09-16T17:59:08.824Z,99301.09
2022-09-16T18:01:58.307Z,99301.81
2022-09-16T18:04:48.088Z,99304.81
2022-09-16T18:07:36.539Z,99304.38
2022-09-16T18:10:26.430Z,99298.88
2022-09-16T18:13:14.903Z,99309.00
2022-09-16T18:16:04.975Z,99306.34
2022-09-16T18:18:54.424Z,99302.03
2022-09-16T18:21:44.443Z,99305.75
2022-09-16T18:24:32.936Z,99302.94
2022-09-16T18:27:23.780Z,99303.53
2022-09-16T18:30:13.312Z,99306.03
2022-09-16T18:33:02.519Z,99312.16
2022-09-16T18:35:50.903Z,99307.03
2022-09-16T18:38:39.329Z,99306.03
2022-09-16T18:41:30.123Z,99306.22
2022-09-16T18:44:23.851Z,99311.94
2022-09-16T18:47:12.578Z,99306.84
2022-09-16T18:50:01.458Z,99309.03
2022-09-16T18:52:50.193Z,99311.34
2022-09-16T18:55:39.452Z,99314.00
2022-09-16T18:58:29.119Z,99307.28
2022-09-16T19:01:27.238Z,99316.00
2022-09-16T19:04:16.838Z,99307.84
2022-09-16T19:07:07.967Z,99313.22
2022-09-16T19:09:59.892Z,99303.56
2022-09-16T19:12:49.796Z,99313.69
2022-09-16T19:15:38.561Z,99313.09
2022-09-16T19:18:32.685Z,99316.72
2022-09-16T19:21:21.982Z,99318.75
2022-09-16T19:24:16.931Z,99324.56
2022-09-16T19:27:05.938Z,99329.47
2022-09-16T19:29:54.488Z,99328.22
2022-09-16T19:32:43.304Z,99325.31
2022-09-16T19:35:33.827Z,99336.13
2022-09-16T19:38:23.342Z,99330.44
2022-09-16T19:41:12.223Z,99330.78
2022-09-16T19:44:02.075Z,99330.91
2022-09-16T19:46:50.736Z,99329.03
2022-09-16T19:49:39.206Z,99331.47
2022-09-16T19:52:29.862Z,99333.44
2022-09-16T19:55:18.556Z,99338.81
2022-09-16T19:58:08.353Z,99328.81
2022-09-16T20:01:00.748Z,99330.53
2022-09-16T20:03:49.569Z,99335.41
2022-09-16T20:06:39.874Z,99329.25
2022-09-16T20:09:29.689Z,99326.91
2022-09-16T20:12:18.868Z,99332.28
2022-09-16T20:15:08.099Z,99323.66
2022-09-16T20:17:56.975Z,99336.81
2022-09-16T20:20:49.200Z,99329.13
2022-09-16T20:23:39.316Z,99333.63
2022-09-16T20:26:32.079Z,99328.53
2022-09-16T20:29:21.062Z,99319.94
2022-09-16T20:32:09.517Z,99319.94
2022-09-16T20:34:57.964Z,99321.56
2022-09-16T20:37:46.472Z,99317.25
2022-09-16T20:40:37.483Z,99314.09
2022-09-16T20:43:27.329Z,99313.97
2022-09-16T20:46:17.692Z,99310.28
2022-09-16T20:49:10.428Z,99315.75
2022-09-16T20:52:00.753Z,99307.66
2022-09-16T20:54:49.267Z,99319.25
2022-09-16T20:57:37.683Z,99314.38
2022-09-16T21:00:27.675Z,99313.91
2022-09-16T21:03:16.233Z,99314.38
2022-09-16T21:06:06.408Z,99312.75
2022-09-16T21:08:55.475Z,99311.00
2022-09-16T21:11:45.449Z,99320.34
2022-09-16T21:14:33.864Z,99316.81
2022-09-16T21:17:23.633Z,99320.06
2022-09-16T21:20:12.049Z,99326.47
2022-09-16T21:23:00.695Z,99327.41
2022-09-16T21:25:49.167Z,99325.75
2022-09-16T21:28:37.578Z,99325.75
2022-09-16T21:31:28.258Z,99324.00
2022-09-16T21:34:20.450Z,99333.28
2022-09-16T21:37:08.899Z,99332.94
2022-09-16T21:39:57.336Z,99326.56
2022-09-16T21:42:46.554Z,99327.16
2022-09-16T21:45:35.102Z,99331.78
2022-09-16T21:48:24.975Z,99328.53
2022-09-16T21:51:16.871Z,99330.63
2022-09-16T21:54:07.111Z,99326.31
2022-09-16T21:56:55.823Z,99327.00
2022-09-16T21:59:44.613Z,99322.81
2022-09-16T22:02:33.112Z,99322.47
2022-09-16T22:05:22.641Z,99329.44
2022-09-16T22:08:13.039Z,99322.72
2022-09-16T22:11:02.619Z,99321.31
2022-09-16T22:13:51.207Z,99327.47
2022-09-16T22:16:40.472Z,99332.47
2022-09-16T22:19:28.966Z,99333.72
2022-09-16T22:22:17.429Z,99332.09
2022-09-16T22:25:07.929Z,99327.59
2022-09-16T22:27:56.388Z,99329.06
2022-09-16T22:30:44.804Z,99322.25
2022-09-16T22:33:33.294Z,99318.38
2022-09-16T22:36:23.587Z,99311.88
2022-09-16T22:39:14.287Z,99305.25
2022-09-16T22:42:04.075Z,99298.97
2022-09-16T22:44:52.524Z,99306.16
2022-09-16T22:47:40.953Z,99304.31
2022-09-16T22:50:29.356Z,99308.84
2022-09-16T22:53:18.864Z,99306.38
2022-09-16T22:56:09.276Z,99313.38
2022-09-16T22:58:59.993Z,99303.81
2022-09-16T23:01:48.801Z,99309.78
2022-09-16T23:04:37.838Z,99312.66
2022-09-16T23:07:26.350Z,99298.25
2022-09-16T23:10:15.135Z,99312.66
2022-09-16T23:13:03.611Z,99300.72
2022-09-16T23:15:54.743Z,99310.44
2022-09-16T23:18:44.058Z,99306.06
2022-09-16T23:21:36.326Z,99303.22
2022-09-16T23:24:24.795Z,99304.06
2022-09-16T23:27:13.292Z,99293.84
2022-09-16T23:30:01.747Z,99293.47
2022-09-16T23:32:51.508Z,99290.81
2022-09-16T23:35:39.961Z,99293.47
2022-09-16T23:38:29.019Z,99287.31
2022-09-16T23:41:19.613Z,99286.69
2022-09-16T23:44:08.139Z,99297.25
2022-09-16T23:46:57.018Z,99295.63
2022-09-16T23:49:46.900Z,99303.03
2022-09-16T23:52:35.622Z,99297.94
2022-09-16T23:55:24.148Z,99297.00
2022-09-16T23:58:13.065Z,99293.28
